createdAt,value
2024-03-08T09:01:34.440Z,30.3748
2024-03-08T09:02:36.047Z,30.2517
2024-03-08T09:03:37.448Z,30.2485
2024-03-08T09:04:38.857Z,30.2905
2024-03-08T09:05:40.806Z,30.0259
2024-03-08T09:06:43.901Z,30.1378
2024-03-08T09:07:45.289Z,30.0835
2024-03-08T09:08:46.633Z,30.1381
2024-03-08T09:09:47.959Z,30.0595
2024-03-08T09:10:51.832Z,30.1199
2024-03-08T09:11:53.603Z,30.1337
2024-03-08T09:12:54.958Z,30.1409
2024-03-08T09:13:56.410Z,29.6772
2024-03-08T09:14:57.741Z,29.9216
2024-03-08T09:15:59.048Z,29.7510
2024-03-08T09:18:12.505Z,30.0397
2024-03-08T09:19:13.625Z,30.2361
2024-03-08T09:20:13.842Z,30.1889
2024-03-08T09:21:14.670Z,30.2868
2024-03-08T09:22:15.386Z,30.2192
2024-03-08T09:23:16.516Z,30.1437
2024-03-08T09:25:19.342Z,29.5731
2024-03-08T09:27:12.370Z,29.5615
2024-03-08T09:28:11.503Z,29.4161
2024-03-08T09:29:12.749Z,29.5977
2024-03-08T09:30:13.981Z,29.5394
2024-03-08T09:31:15.252Z,29.4862
2024-03-08T09:32:16.495Z,29.6762
2024-03-08T09:33:17.827Z,29.6993
2024-03-08T09:34:22.914Z,29.8034
2024-03-08T09:35:19.731Z,29.7760
2024-03-08T09:36:21.013Z,29.7101
2024-03-08T09:37:22.271Z,29.6448
2024-03-08T09:38:23.516Z,29.5843
2024-03-08T09:39:27.164Z,29.5279
2024-03-08T09:40:26.739Z,29.4857
2024-03-08T09:41:27.983Z,29.4523
2024-03-08T09:42:29.331Z,29.4494
2024-03-08T09:43:30.604Z,29.4355
2024-03-08T09:44:31.832Z,29.4481
2024-03-08T09:46:34.298Z,29.4359
2024-03-08T09:47:35.638Z,29.4257
2024-03-08T09:49:29.349Z,29.6641
2024-03-08T09:50:37.147Z,29.6473
2024-03-08T09:51:44.958Z,29.6480
2024-03-08T09:52:52.879Z,29.6073
2024-03-08T09:54:02.918Z,29.5090
2024-03-08T09:56:36.897Z,29.1554
2024-03-08T09:57:44.674Z,29.1529
2024-03-08T10:00:24.966Z,28.9232
2024-03-08T10:01:33.217Z,28.8576
2024-03-08T10:02:41.020Z,28.7329
2024-03-08T10:03:48.900Z,28.6210
2024-03-08T10:04:56.741Z,28.6116
2024-03-08T10:06:04.671Z,28.6434
2024-03-08T10:07:12.518Z,28.6473
2024-03-08T10:08:20.347Z,28.6414
2024-03-08T10:09:28.218Z,28.6159
2024-03-08T10:10:36.046Z,28.5899
2024-03-08T10:11:43.860Z,28.5622
2024-03-08T10:12:51.672Z,28.5271
2024-03-08T10:13:59.538Z,28.4945
2024-03-08T10:15:07.359Z,28.4591
2024-03-08T10:16:15.270Z,28.4206
2024-03-08T10:17:23.081Z,28.3862
2024-03-08T10:18:30.922Z,28.3531
2024-03-08T10:19:38.770Z,28.3196
2024-03-08T10:20:46.616Z,28.2847
2024-03-08T10:21:54.533Z,28.2529
2024-03-08T10:23:10.123Z,28.2195
2024-03-08T10:24:07.750Z,28.1896
2024-03-08T10:25:15.645Z,28.1560
2024-03-08T10:26:23.549Z,28.1493
2024-03-08T10:27:33.175Z,28.1348
2024-03-08T10:28:41.157Z,28.0992
2024-03-08T10:29:49.048Z,28.0550
2024-03-08T10:30:56.932Z,28.0145
2024-03-08T10:32:04.885Z,27.9784
2024-03-08T10:33:12.832Z,27.9600
2024-03-08T10:36:07.457Z,27.6441
2024-03-08T10:37:15.244Z,27.5595
2024-03-08T10:38:23.087Z,27.5112
2024-03-08T10:39:31.025Z,27.5081
2024-03-08T10:44:58.407Z,27.5806
2024-03-08T16:38:29.680Z,36.1897
2024-03-08T16:39:37.475Z,35.8750
2024-03-08T16:40:45.642Z,35.6559
2024-03-08T16:41:49.880Z,35.5164
2024-03-08T16:42:57.906Z,35.3719
2024-03-08T16:44:05.810Z,35.2475
2024-03-08T16:45:13.681Z,35.1184
2024-03-08T16:46:21.939Z,34.9969
2024-03-08T16:47:30.149Z,34.9201
2024-03-08T16:51:39.917Z,33.8559
2024-03-08T16:52:49.169Z,33.9070
2024-03-08T17:07:06.054Z,54.9034
2024-03-08T17:08:13.864Z,55.3360
2024-03-08T17:09:21.856Z,55.6434
2024-03-08T17:10:29.952Z,55.8562
2024-03-08T17:11:37.972Z,56.0776
2024-03-08T17:12:45.793Z,56.2282
2024-03-08T17:13:53.693Z,56.3301
2024-03-08T17:15:01.609Z,56.4164
2024-03-08T17:16:09.405Z,56.4678
2024-03-08T17:17:17.384Z,56.5102
2024-03-08T17:18:25.234Z,56.5841
2024-03-08T17:19:33.118Z,56.6194
2024-03-08T17:20:40.905Z,56.6376
2024-03-08T17:21:48.789Z,56.6610
2024-03-08T17:22:57.623Z,56.6884
2024-03-08T17:23:58.088Z,56.7065
2024-03-08T17:25:05.944Z,56.7274
2024-03-08T17:26:13.987Z,56.7434
2024-03-08T17:27:22.485Z,56.7557
2024-03-08T17:28:30.333Z,56.7634
2024-03-08T17:29:38.192Z,56.7670
2024-03-08T17:30:45.974Z,56.7684
2024-03-08T17:31:53.863Z,56.7702
2024-03-08T17:33:02.032Z,56.7728
2024-03-08T17:34:09.856Z,56.7777
2024-03-08T17:35:17.707Z,56.7847
2024-03-08T17:36:25.522Z,56.7919
2024-03-08T17:38:07.544Z,57.0304
2024-03-08T17:39:15.343Z,53.8352
2024-03-08T17:40:23.323Z,50.0663
2024-03-08T17:41:31.167Z,58.2673
2024-03-08T17:42:39.044Z,58.5327
2024-03-08T17:43:47.032Z,58.3864
2024-03-08T17:44:54.883Z,58.0316
2024-03-08T17:46:02.755Z,57.7337
2024-03-08T17:47:10.660Z,57.5709
2024-03-08T17:48:19.312Z,57.4764
2024-03-08T17:49:27.366Z,57.3843
2024-03-08T17:50:35.222Z,57.3196
2024-03-08T17:51:43.082Z,57.3021
2024-03-08T17:52:50.988Z,57.2725
2024-03-08T17:53:58.906Z,57.2561
2024-03-08T17:55:06.741Z,57.2545
2024-03-08T17:56:14.767Z,57.2370
2024-03-08T17:57:22.580Z,57.3224
2024-03-08T17:58:30.485Z,57.3440
2024-03-08T17:59:38.330Z,57.3657
2024-03-08T18:00:46.214Z,57.4123
2024-03-08T18:01:54.150Z,57.4003
2024-03-08T18:03:02.013Z,57.4405
2024-03-08T18:04:09.881Z,57.4627
2024-03-08T18:05:17.702Z,57.3931
2024-03-08T18:06:25.593Z,57.5043
2024-03-08T18:07:33.433Z,57.5418
2024-03-08T18:08:41.313Z,57.5540
2024-03-08T18:09:49.290Z,57.6180
2024-03-08T18:10:57.185Z,57.6507
2024-03-08T18:12:05.086Z,57.6536
2024-03-08T18:13:12.956Z,57.6904
2024-03-08T18:14:20.840Z,57.6584
2024-03-08T18:15:28.700Z,57.7417
2024-03-08T18:16:36.622Z,57.7491
2024-03-08T18:17:44.456Z,57.7780
2024-03-08T18:18:52.294Z,57.8010
2024-03-08T18:20:00.240Z,57.8074
2024-03-08T18:21:08.069Z,57.8343
2024-03-08T18:22:15.935Z,57.9422
2024-03-08T18:23:23.801Z,57.9343
2024-03-08T18:24:31.692Z,57.9567
2024-03-08T18:25:39.597Z,57.9323
2024-03-08T18:26:47.379Z,57.9964
2024-03-08T18:27:55.237Z,57.9642
2024-03-08T18:29:03.149Z,57.9601
2024-03-08T18:30:10.978Z,57.9923
2024-03-08T18:31:18.979Z,58.0059
